Terminal Aerodrome Forecast
Issued by NWS

Home | Current Version | Previous Version | Text Only | Print | Product List | Glossary On
Versions: 1 2 3 4 5 6 7 8 9 10 11 12 13 14
000
FTUS43 KLSX 120500
TAFUIN
TAF
KUIN 120530Z 1206/1306 17008KT P6SM SCT070 BKN150
     FM120900 19007KT P6SM VCSH BKN080
     FM121200 22008KT P6SM BKN120=

USA.gov is the U.S. government's official web portal to all federal, state and local government web resources and services.